Terminal Aerodrome Forecast
Issued by NWS

Home | Current Version | Previous Version | Text Only | Print | Product List | Glossary On
Versions: 1 2 3 4 5 6 7 8 9 10 11 12 13 14 15 16 17 18 19
966
FTUS43 KGRR 111152
TAFMKG
TAF
KMKG 111152Z 1112/1212 31009KT 6SM -SHSN OVC035
      TEMPO 1112/1116 3SM -SHSN BR OVC025
     FM111600 30011KT 6SM -SHSN OVC035
     FM120000 26008KT P6SM -SN BKN040
     FM121100 27011G20KT 4SM -SHSN BR OVC030=

USA.gov is the U.S. government's official web portal to all federal, state and local government web resources and services.